sensor_id;sensor_type;location;lat;lon;timestamp;pressure;altitude;pressure_sealevel;temperature;humidity
75172;BME280;63750;52.418;20.742;2024-03-02T00:01:42;100413.89;;;10.42;64.54
75172;BME280;63750;52.418;20.742;2024-03-02T00:04:10;100413.08;;;10.41;64.65
75172;BME280;63750;52.418;20.742;2024-03-02T00:06:38;100412.97;;;10.44;64.60
75172;BME280;63750;52.418;20.742;2024-03-02T00:09:06;100411.38;;;10.44;64.57
75172;BME280;63750;52.418;20.742;2024-03-02T00:11:37;100410.08;;;10.42;64.39
75172;BME280;63750;52.418;20.742;2024-03-02T00:14:05;100411.90;;;10.42;64.29
75172;BME280;63750;52.418;20.742;2024-03-02T00:16:33;100413.39;;;10.39;64.33
75172;BME280;63750;52.418;20.742;2024-03-02T00:19:04;100411.67;;;10.37;64.86
75172;BME280;63750;52.418;20.742;2024-03-02T00:21:33;100407.77;;;10.35;64.87
75172;BME280;63750;52.418;20.742;2024-03-02T00:24:02;100407.36;;;10.36;64.78
75172;BME280;63750;52.418;20.742;2024-03-02T00:26:34;100406.30;;;10.33;64.93
75172;BME280;63750;52.418;20.742;2024-03-02T00:29:03;100399.59;;;10.29;64.94
75172;BME280;63750;52.418;20.742;2024-03-02T00:31:33;100400.38;;;10.26;65.07
75172;BME280;63750;52.418;20.742;2024-03-02T00:34:05;100400.81;;;10.29;65.30
75172;BME280;63750;52.418;20.742;2024-03-02T00:36:33;100397.94;;;10.30;65.03
75172;BME280;63750;52.418;20.742;2024-03-02T00:39:02;100397.34;;;10.26;64.87
75172;BME280;63750;52.418;20.742;2024-03-02T00:41:31;100395.23;;;10.22;65.10
75172;BME280;63750;52.418;20.742;2024-03-02T00:44:00;100394.00;;;10.20;65.13
75172;BME280;63750;52.418;20.742;2024-03-02T00:46:32;100390.84;;;10.20;65.11
75172;BME280;63750;52.418;20.742;2024-03-02T00:49:02;100392.45;;;10.22;65.24
75172;BME280;63750;52.418;20.742;2024-03-02T00:51:33;100392.45;;;10.23;64.99
75172;BME280;63750;52.418;20.742;2024-03-02T00:54:04;100396.19;;;10.23;64.94
75172;BME280;63750;52.418;20.742;2024-03-02T00:56:33;100399.90;;;10.15;65.28
75172;BME280;63750;52.418;20.742;2024-03-02T00:59:02;100401.65;;;10.15;65.34
75172;BME280;63750;52.418;20.742;2024-03-02T01:01:30;100404.38;;;10.08;65.38
75172;BME280;63750;52.418;20.742;2024-03-02T01:03:58;100412.29;;;10.05;65.69
75172;BME280;63750;52.418;20.742;2024-03-02T01:06:26;100404.98;;;9.93;65.87
75172;BME280;63750;52.418;20.742;2024-03-02T01:08:54;100404.80;;;9.85;66.13
75172;BME280;63750;52.418;20.742;2024-03-02T01:11:22;100400.63;;;9.82;66.15
75172;BME280;63750;52.418;20.742;2024-03-02T01:13:51;100395.59;;;9.81;66.49
75172;BME280;63750;52.418;20.742;2024-03-02T01:16:19;100390.48;;;9.83;66.39
75172;BME280;63750;52.418;20.742;2024-03-02T01:18:47;100388.88;;;9.85;66.37
75172;BME280;63750;52.418;20.742;2024-03-02T01:21:16;100386.92;;;9.92;66.01
75172;BME280;63750;52.418;20.742;2024-03-02T01:23:44;100380.77;;;9.95;66.05
75172;BME280;63750;52.418;20.742;2024-03-02T01:26:12;100383.34;;;9.96;65.55
75172;BME280;63750;52.418;20.742;2024-03-02T01:28:40;100387.35;;;9.86;65.53
75172;BME280;63750;52.418;20.742;2024-03-02T01:31:09;100384.64;;;9.83;66.05
75172;BME280;63750;52.418;20.742;2024-03-02T01:33:37;100388.48;;;9.81;66.23
75172;BME280;63750;52.418;20.742;2024-03-02T01:36:06;100386.25;;;9.79;66.07
75172;BME280;63750;52.418;20.742;2024-03-02T01:38:34;100381.33;;;9.72;66.20
75172;BME280;63750;52.418;20.742;2024-03-02T01:41:03;100378.05;;;9.73;66.21
75172;BME280;63750;52.418;20.742;2024-03-02T01:43:31;100381.28;;;9.73;66.36
75172;BME280;63750;52.418;20.742;2024-03-02T01:45:59;100378.08;;;9.75;65.86
75172;BME280;63750;52.418;20.742;2024-03-02T01:48:27;100374.00;;;9.75;65.95
75172;BME280;63750;52.418;20.742;2024-03-02T01:50:56;100370.24;;;9.74;66.12
75172;BME280;63750;52.418;20.742;2024-03-02T01:53:24;100366.52;;;9.72;66.27
75172;BME280;63750;52.418;20.742;2024-03-02T01:55:52;100368.95;;;9.72;66.03
75172;BME280;63750;52.418;20.742;2024-03-02T01:58:20;100368.63;;;9.74;65.98
75172;BME280;63750;52.418;20.742;2024-03-02T02:00:49;100368.84;;;9.76;65.86
75172;BME280;63750;52.418;20.742;2024-03-02T02:03:17;100367.85;;;9.75;65.77
75172;BME280;63750;52.418;20.742;2024-03-02T02:05:45;100368.86;;;9.71;65.85
75172;BME280;63750;52.418;20.742;2024-03-02T02:08:14;100369.80;;;9.64;65.81
75172;BME280;63750;52.418;20.742;2024-03-02T02:10:42;100362.77;;;9.62;66.16
75172;BME280;63750;52.418;20.742;2024-03-02T02:13:10;100362.54;;;9.65;66.23
75172;BME280;63750;52.418;20.742;2024-03-02T02:15:38;100359.92;;;9.68;65.81
75172;BME280;63750;52.418;20.742;2024-03-02T02:18:07;100362.91;;;9.66;65.96
75172;BME280;63750;52.418;20.742;2024-03-02T02:20:35;100361.48;;;9.65;66.12
75172;BME280;63750;52.418;20.742;2024-03-02T02:23:04;100357.59;;;9.62;65.95
75172;BME280;63750;52.418;20.742;2024-03-02T02:25:32;100364.08;;;9.63;65.91
75172;BME280;63750;52.418;20.742;2024-03-02T02:28:00;100365.65;;;9.61;66.06
75172;BME280;63750;52.418;20.742;2024-03-02T02:30:30;100362.05;;;9.56;66.27
75172;BME280;63750;52.418;20.742;2024-03-02T02:32:59;100363.69;;;9.53;66.83
75172;BME280;63750;52.418;20.742;2024-03-02T02:35:27;100362.83;;;9.52;66.72
75172;BME280;63750;52.418;20.742;2024-03-02T02:37:56;100355.33;;;9.51;66.52
75172;BME280;63750;52.418;20.742;2024-03-02T02:40:25;100356.63;;;9.51;66.41
75172;BME280;63750;52.418;20.742;2024-03-02T02:42:53;100348.30;;;9.53;66.50
75172;BME280;63750;52.418;20.742;2024-03-02T02:45:21;100352.13;;;9.56;66.24
75172;BME280;63750;52.418;20.742;2024-03-02T02:47:49;100350.95;;;9.55;66.29
75172;BME280;63750;52.418;20.742;2024-03-02T02:50:17;100350.42;;;9.55;66.36
75172;BME280;63750;52.418;20.742;2024-03-02T02:52:46;100351.43;;;9.56;66.67
75172;BME280;63750;52.418;20.742;2024-03-02T02:55:15;100350.17;;;9.58;66.42
75172;BME280;63750;52.418;20.742;2024-03-02T02:57:43;100346.70;;;9.62;66.27
75172;BME280;63750;52.418;20.742;2024-03-02T03:00:14;100344.36;;;9.60;66.13
75172;BME280;63750;52.418;20.742;2024-03-02T03:02:43;100343.53;;;9.53;66.17
75172;BME280;63750;52.418;20.742;2024-03-02T03:05:13;100343.88;;;9.51;66.54
75172;BME280;63750;52.418;20.742;2024-03-02T03:07:42;100342.94;;;9.51;66.64
75172;BME280;63750;52.418;20.742;2024-03-02T03:10:10;100343.55;;;9.54;66.69
75172;BME280;63750;52.418;20.742;2024-03-02T03:12:38;100342.23;;;9.56;66.41
75172;BME280;63750;52.418;20.742;2024-03-02T03:15:08;100346.46;;;9.53;66.19
75172;BME280;63750;52.418;20.742;2024-03-02T03:17:37;100347.63;;;9.54;66.42
75172;BME280;63750;52.418;20.742;2024-03-02T03:20:08;100343.63;;;9.54;66.20
75172;BME280;63750;52.418;20.742;2024-03-02T03:22:36;100346.27;;;9.52;66.36
75172;BME280;63750;52.418;20.742;2024-03-02T03:25:06;100343.10;;;9.51;66.24
75172;BME280;63750;52.418;20.742;2024-03-02T03:27:34;100339.87;;;9.52;65.99
75172;BME280;63750;52.418;20.742;2024-03-02T03:30:02;100335.94;;;9.51;66.51
75172;BME280;63750;52.418;20.742;2024-03-02T03:32:31;100338.46;;;9.52;66.27
75172;BME280;63750;52.418;20.742;2024-03-02T03:34:59;100333.48;;;9.57;66.19
75172;BME280;63750;52.418;20.742;2024-03-02T03:37:27;100331.73;;;9.59;66.07
75172;BME280;63750;52.418;20.742;2024-03-02T03:39:55;100329.68;;;9.60;66.06
75172;BME280;63750;52.418;20.742;2024-03-02T03:42:23;100331.31;;;9.64;65.52
75172;BME280;63750;52.418;20.742;2024-03-02T03:44:51;100330.66;;;9.61;65.56
75172;BME280;63750;52.418;20.742;2024-03-02T03:47:20;100330.06;;;9.55;65.92
75172;BME280;63750;52.418;20.742;2024-03-02T03:49:48;100332.70;;;9.51;65.74
75172;BME280;63750;52.418;20.742;2024-03-02T03:52:16;100332.59;;;9.48;66.15
75172;BME280;63750;52.418;20.742;2024-03-02T03:54:44;100332.39;;;9.43;66.15
75172;BME280;63750;52.418;20.742;2024-03-02T03:57:12;100331.05;;;9.38;65.97
75172;BME280;63750;52.418;20.742;2024-03-02T03:59:40;100334.36;;;9.34;66.34
75172;BME280;63750;52.418;20.742;2024-03-02T04:02:08;100336.01;;;9.30;66.43
75172;BME280;63750;52.418;20.742;2024-03-02T04:04:37;100337.09;;;9.27;66.38
75172;BME280;63750;52.418;20.742;2024-03-02T04:07:05;100332.15;;;9.23;66.64
75172;BME280;63750;52.418;20.742;2024-03-02T04:09:33;100331.66;;;9.20;66.23
75172;BME280;63750;52.418;20.742;2024-03-02T04:12:01;100327.29;;;9.20;66.54
75172;BME280;63750;52.418;20.742;2024-03-02T04:14:29;100329.10;;;9.21;66.49
75172;BME280;63750;52.418;20.742;2024-03-02T04:16:57;100329.27;;;9.19;66.25
75172;BME280;63750;52.418;20.742;2024-03-02T04:19:25;100336.96;;;9.16;66.58
75172;BME280;63750;52.418;20.742;2024-03-02T04:21:53;100340.41;;;9.13;66.83
75172;BME280;63750;52.418;20.742;2024-03-02T04:24:22;100346.11;;;9.04;66.96
75172;BME280;63750;52.418;20.742;2024-03-02T04:26:50;100346.27;;;8.96;66.88
75172;BME280;63750;52.418;20.742;2024-03-02T04:29:18;100349.61;;;8.96;67.45
75172;BME280;63750;52.418;20.742;2024-03-02T04:31:46;100352.27;;;8.96;67.60
75172;BME280;63750;52.418;20.742;2024-03-02T04:34:14;100352.11;;;8.98;67.16
75172;BME280;63750;52.418;20.742;2024-03-02T04:36:42;100348.71;;;8.98;67.32
75172;BME280;63750;52.418;20.742;2024-03-02T04:39:10;100355.75;;;9.01;67.27
75172;BME280;63750;52.418;20.742;2024-03-02T04:41:38;100349.92;;;8.96;67.25
75172;BME280;63750;52.418;20.742;2024-03-02T04:44:07;100348.27;;;8.95;67.67
75172;BME280;63750;52.418;20.742;2024-03-02T04:46:35;100353.52;;;8.96;67.31
75172;BME280;63750;52.418;20.742;2024-03-02T04:49:03;100352.36;;;8.91;67.41
75172;BME280;63750;52.418;20.742;2024-03-02T04:51:31;100352.08;;;8.88;67.61
75172;BME280;63750;52.418;20.742;2024-03-02T04:53:59;100347.17;;;8.87;67.74
75172;BME280;63750;52.418;20.742;2024-03-02T04:56:27;100339.27;;;8.89;67.83
75172;BME280;63750;52.418;20.742;2024-03-02T04:58:55;100351.35;;;8.88;67.43
75172;BME280;63750;52.418;20.742;2024-03-02T05:01:23;100353.23;;;8.84;67.52
75172;BME280;63750;52.418;20.742;2024-03-02T05:03:52;100350.64;;;8.83;67.52
75172;BME280;63750;52.418;20.742;2024-03-02T05:06:20;100352.96;;;8.79;68.01
75172;BME280;63750;52.418;20.742;2024-03-02T05:08:48;100353.58;;;8.76;68.27
75172;BME280;63750;52.418;20.742;2024-03-02T05:11:16;100361.80;;;8.74;67.88
75172;BME280;63750;52.418;20.742;2024-03-02T05:13:44;100354.58;;;8.79;68.00
75172;BME280;63750;52.418;20.742;2024-03-02T05:16:12;100357.06;;;8.82;67.65
75172;BME280;63750;52.418;20.742;2024-03-02T05:18:41;100355.84;;;8.85;67.97
75172;BME280;63750;52.418;20.742;2024-03-02T05:21:09;100355.00;;;8.87;67.40
75172;BME280;63750;52.418;20.742;2024-03-02T05:23:37;100363.54;;;8.86;67.69
75172;BME280;63750;52.418;20.742;2024-03-02T05:26:05;100369.04;;;8.81;67.90
75172;BME280;63750;52.418;20.742;2024-03-02T05:28:34;100367.23;;;8.81;68.09
75172;BME280;63750;52.418;20.742;2024-03-02T05:31:02;100369.33;;;8.79;67.88
75172;BME280;63750;52.418;20.742;2024-03-02T05:33:30;100378.63;;;8.78;68.02
75172;BME280;63750;52.418;20.742;2024-03-02T05:35:58;100379.76;;;8.81;67.89
75172;BME280;63750;52.418;20.742;2024-03-02T05:38:27;100382.96;;;8.81;67.73
75172;BME280;63750;52.418;20.742;2024-03-02T05:40:55;100380.21;;;8.85;67.89
75172;BME280;63750;52.418;20.742;2024-03-02T05:43:23;100393.36;;;8.89;67.65
75172;BME280;63750;52.418;20.742;2024-03-02T05:45:51;100393.20;;;8.90;67.61
75172;BME280;63750;52.418;20.742;2024-03-02T05:48:19;100394.17;;;8.93;67.59
75172;BME280;63750;52.418;20.742;2024-03-02T05:50:47;100392.63;;;8.95;67.70
75172;BME280;63750;52.418;20.742;2024-03-02T05:53:16;100397.70;;;8.95;67.52
75172;BME280;63750;52.418;20.742;2024-03-02T05:55:44;100401.77;;;8.98;67.53
75172;BME280;63750;52.418;20.742;2024-03-02T05:58:12;100395.66;;;8.94;67.08
75172;BME280;63750;52.418;20.742;2024-03-02T06:00:40;100402.48;;;8.93;67.42
75172;BME280;63750;52.418;20.742;2024-03-02T06:03:08;100404.67;;;8.95;67.45
75172;BME280;63750;52.418;20.742;2024-03-02T06:05:36;100413.92;;;8.94;67.31
75172;BME280;63750;52.418;20.742;2024-03-02T06:08:05;100405.77;;;8.92;67.29
75172;BME280;63750;52.418;20.742;2024-03-02T06:10:34;100408.46;;;8.94;67.71
75172;BME280;63750;52.418;20.742;2024-03-02T06:13:02;100410.54;;;8.92;67.49
75172;BME280;63750;52.418;20.742;2024-03-02T06:15:30;100409.40;;;8.91;67.48
75172;BME280;63750;52.418;20.742;2024-03-02T06:17:58;100413.86;;;8.92;67.64
75172;BME280;63750;52.418;20.742;2024-03-02T06:20:26;100410.58;;;8.96;67.47
75172;BME280;63750;52.418;20.742;2024-03-02T06:22:54;100409.66;;;8.98;67.04
75172;BME280;63750;52.418;20.742;2024-03-02T06:25:22;100407.58;;;9.02;67.27
75172;BME280;63750;52.418;20.742;2024-03-02T06:27:51;100407.06;;;9.06;66.99
75172;BME280;63750;52.418;20.742;2024-03-02T06:30:19;100408.23;;;9.09;67.08
75172;BME280;63750;52.418;20.742;2024-03-02T06:32:47;100401.48;;;9.12;66.80
75172;BME280;63750;52.418;20.742;2024-03-02T06:35:15;100407.73;;;9.13;66.82
75172;BME280;63750;52.418;20.742;2024-03-02T06:37:44;100404.24;;;9.15;66.79
75172;BME280;63750;52.418;20.742;2024-03-02T06:40:12;100410.63;;;9.16;67.23
75172;BME280;63750;52.418;20.742;2024-03-02T06:42:40;100417.13;;;9.17;67.21
75172;BME280;63750;52.418;20.742;2024-03-02T06:45:09;100416.35;;;9.16;67.07
75172;BME280;63750;52.418;20.742;2024-03-02T06:47:37;100416.66;;;9.20;67.01
75172;BME280;63750;52.418;20.742;2024-03-02T06:50:06;100421.00;;;9.19;67.15
75172;BME280;63750;52.418;20.742;2024-03-02T06:52:34;100419.44;;;9.19;66.83
75172;BME280;63750;52.418;20.742;2024-03-02T06:55:02;100420.12;;;9.19;66.92
75172;BME280;63750;52.418;20.742;2024-03-02T06:57:31;100429.99;;;9.20;67.19
75172;BME280;63750;52.418;20.742;2024-03-02T06:59:59;100433.02;;;9.17;67.00
75172;BME280;63750;52.418;20.742;2024-03-02T07:02:27;100428.88;;;9.16;66.87
75172;BME280;63750;52.418;20.742;2024-03-02T07:04:55;100422.25;;;9.15;67.51
75172;BME280;63750;52.418;20.742;2024-03-02T07:07:23;100422.32;;;9.16;67.29
75172;BME280;63750;52.418;20.742;2024-03-02T07:09:52;100426.76;;;9.14;66.95
75172;BME280;63750;52.418;20.742;2024-03-02T07:12:20;100433.23;;;9.08;67.32
75172;BME280;63750;52.418;20.742;2024-03-02T07:14:48;100424.80;;;9.06;67.38
75172;BME280;63750;52.418;20.742;2024-03-02T07:17:16;100427.49;;;9.09;67.80
75172;BME280;63750;52.418;20.742;2024-03-02T07:19:44;100427.00;;;9.13;67.57
75172;BME280;63750;52.418;20.742;2024-03-02T07:22:13;100428.21;;;9.11;67.70
75172;BME280;63750;52.418;20.742;2024-03-02T07:24:45;100435.89;;;9.08;67.68
75172;BME280;63750;52.418;20.742;2024-03-02T07:27:14;100440.12;;;9.08;67.73
75172;BME280;63750;52.418;20.742;2024-03-02T07:29:43;100436.61;;;9.16;67.82
75172;BME280;63750;52.418;20.742;2024-03-02T07:32:11;100438.45;;;9.22;67.71
75172;BME280;63750;52.418;20.742;2024-03-02T07:34:39;100445.55;;;9.26;67.59
75172;BME280;63750;52.418;20.742;2024-03-02T07:37:08;100442.83;;;9.29;67.59
75172;BME280;63750;52.418;20.742;2024-03-02T07:39:36;100436.61;;;9.38;67.61
75172;BME280;63750;52.418;20.742;2024-03-02T07:42:05;100440.86;;;9.40;67.04
75172;BME280;63750;52.418;20.742;2024-03-02T07:44:33;100442.91;;;9.40;67.19
75172;BME280;63750;52.418;20.742;2024-03-02T07:47:01;100441.95;;;9.35;67.22
75172;BME280;63750;52.418;20.742;2024-03-02T07:49:30;100441.63;;;9.41;67.56
75172;BME280;63750;52.418;20.742;2024-03-02T07:51:58;100438.30;;;9.47;67.70
75172;BME280;63750;52.418;20.742;2024-03-02T07:54:26;100441.63;;;9.47;67.33
75172;BME280;63750;52.418;20.742;2024-03-02T07:56:54;100442.34;;;9.39;67.30
75172;BME280;63750;52.418;20.742;2024-03-02T07:59:23;100446.34;;;9.34;67.78
75172;BME280;63750;52.418;20.742;2024-03-02T08:01:51;100451.28;;;9.36;67.61
75172;BME280;63750;52.418;20.742;2024-03-02T08:04:19;100457.37;;;9.31;67.88
75172;BME280;63750;52.418;20.742;2024-03-02T08:06:48;100463.15;;;9.23;67.87
75172;BME280;63750;52.418;20.742;2024-03-02T08:09:16;100466.90;;;9.22;68.29
75172;BME280;63750;52.418;20.742;2024-03-02T08:11:44;100458.98;;;9.26;67.99
75172;BME280;63750;52.418;20.742;2024-03-02T08:14:12;100456.55;;;9.34;68.07
75172;BME280;63750;52.418;20.742;2024-03-02T08:16:41;100460.88;;;9.39;68.02
75172;BME280;63750;52.418;20.742;2024-03-02T08:19:09;100465.05;;;9.46;67.59
75172;BME280;63750;52.418;20.742;2024-03-02T08:21:38;100467.31;;;9.51;67.48
75172;BME280;63750;52.418;20.742;2024-03-02T08:24:07;100458.14;;;9.53;67.48
75172;BME280;63750;52.418;20.742;2024-03-02T08:26:35;100455.89;;;9.54;67.18
75172;BME280;63750;52.418;20.742;2024-03-02T08:29:04;100462.13;;;9.59;67.41
75172;BME280;63750;52.418;20.742;2024-03-02T08:31:32;100463.85;;;9.67;67.47
75172;BME280;63750;52.418;20.742;2024-03-02T08:34:00;100458.19;;;9.73;67.14
75172;BME280;63750;52.418;20.742;2024-03-02T08:36:28;100457.48;;;9.77;66.68
75172;BME280;63750;52.418;20.742;2024-03-02T08:38:56;100454.13;;;9.81;66.70
75172;BME280;63750;52.418;20.742;2024-03-02T08:41:24;100454.61;;;9.90;66.71
75172;BME280;63750;52.418;20.742;2024-03-02T08:43:53;100448.23;;;9.97;66.39
75172;BME280;63750;52.418;20.742;2024-03-02T08:46:21;100444.45;;;9.99;66.11
75172;BME280;63750;52.418;20.742;2024-03-02T08:48:49;100448.62;;;10.04;65.94
75172;BME280;63750;52.418;20.742;2024-03-02T08:51:18;100448.36;;;10.03;66.18
75172;BME280;63750;52.418;20.742;2024-03-02T08:53:46;100456.29;;;10.02;66.20
75172;BME280;63750;52.418;20.742;2024-03-02T08:56:14;100461.23;;;10.04;65.82
75172;BME280;63750;52.418;20.742;2024-03-02T08:58:44;100459.82;;;10.06;65.85
75172;BME280;63750;52.418;20.742;2024-03-02T09:01:12;100461.09;;;10.08;65.74
75172;BME280;63750;52.418;20.742;2024-03-02T09:03:40;100462.05;;;10.02;65.79
75172;BME280;63750;52.418;20.742;2024-03-02T09:06:09;100470.52;;;9.95;65.87
75172;BME280;63750;52.418;20.742;2024-03-02T09:08:37;100477.37;;;10.16;75.14
75172;BME280;63750;52.418;20.742;2024-03-02T09:11:06;100469.91;;;10.29;68.97
75172;BME280;63750;52.418;20.742;2024-03-02T09:13:35;100466.23;;;10.20;66.70
75172;BME280;63750;52.418;20.742;2024-03-02T09:16:03;100468.20;;;10.15;66.02
75172;BME280;63750;52.418;20.742;2024-03-02T09:18:31;100468.59;;;10.13;66.29
75172;BME280;63750;52.418;20.742;2024-03-02T09:20:59;100466.64;;;10.17;66.30
75172;BME280;63750;52.418;20.742;2024-03-02T09:23:28;100461.60;;;10.20;66.57
75172;BME280;63750;52.418;20.742;2024-03-02T09:25:56;100468.60;;;10.27;66.16
75172;BME280;63750;52.418;20.742;2024-03-02T09:28:24;100469.97;;;10.30;65.86
75172;BME280;63750;52.418;20.742;2024-03-02T09:30:52;100466.89;;;10.33;65.82
75172;BME280;63750;52.418;20.742;2024-03-02T09:33:20;100470.52;;;10.30;65.83
75172;BME280;63750;52.418;20.742;2024-03-02T09:35:48;100464.58;;;10.35;65.68
75172;BME280;63750;52.418;20.742;2024-03-02T09:38:16;100466.13;;;10.42;65.78
75172;BME280;63750;52.418;20.742;2024-03-02T09:40:44;100463.72;;;10.47;65.43
75172;BME280;63750;52.418;20.742;2024-03-02T09:43:13;100462.02;;;10.54;65.41
75172;BME280;63750;52.418;20.742;2024-03-02T09:45:42;100458.09;;;10.65;65.18
75172;BME280;63750;52.418;20.742;2024-03-02T09:48:10;100462.42;;;10.67;64.76
75172;BME280;63750;52.418;20.742;2024-03-02T09:50:38;100461.05;;;10.71;64.76
75172;BME280;63750;52.418;20.742;2024-03-02T09:53:08;100461.63;;;10.74;64.73
75172;BME280;63750;52.418;20.742;2024-03-02T09:55:36;100463.05;;;10.80;64.84
75172;BME280;63750;52.418;20.742;2024-03-02T09:58:04;100466.23;;;10.82;64.56
75172;BME280;63750;52.418;20.742;2024-03-02T10:00:33;100468.86;;;10.77;64.14
75172;BME280;63750;52.418;20.742;2024-03-02T10:03:01;100466.10;;;10.78;64.75
75172;BME280;63750;52.418;20.742;2024-03-02T10:05:30;100464.55;;;10.85;64.68
75172;BME280;63750;52.418;20.742;2024-03-02T10:08:02;100467.63;;;10.90;64.28
75172;BME280;63750;52.418;20.742;2024-03-02T10:10:38;100459.58;;;10.91;64.19
75172;BME280;63750;52.418;20.742;2024-03-02T10:13:07;100462.65;;;10.90;64.19
75172;BME280;63750;52.418;20.742;2024-03-02T10:15:36;100460.43;;;10.98;64.13
75172;BME280;63750;52.418;20.742;2024-03-02T10:18:05;100463.02;;;10.98;63.77
75172;BME280;63750;52.418;20.742;2024-03-02T10:20:36;100453.34;;;11.00;63.93
75172;BME280;63750;52.418;20.742;2024-03-02T10:23:12;100455.23;;;11.04;63.93
75172;BME280;63750;52.418;20.742;2024-03-02T10:25:42;100455.83;;;11.08;63.80
75172;BME280;63750;52.418;20.742;2024-03-02T10:28:10;100452.77;;;11.08;63.64
75172;BME280;63750;52.418;20.742;2024-03-02T10:30:38;100447.20;;;11.09;63.87
75172;BME280;63750;52.418;20.742;2024-03-02T10:33:07;100443.33;;;11.14;63.77
75172;BME280;63750;52.418;20.742;2024-03-02T10:35:35;100441.16;;;11.20;63.95
75172;BME280;63750;52.418;20.742;2024-03-02T10:38:05;100440.30;;;11.30;64.15
75172;BME280;63750;52.418;20.742;2024-03-02T10:40:33;100438.36;;;11.39;63.62
75172;BME280;63750;52.418;20.742;2024-03-02T10:43:02;100435.48;;;11.55;63.78
75172;BME280;63750;52.418;20.742;2024-03-02T10:45:31;100438.64;;;11.71;63.10
75172;BME280;63750;52.418;20.742;2024-03-02T10:47:59;100434.61;;;11.84;63.10
75172;BME280;63750;52.418;20.742;2024-03-02T10:50:28;100435.83;;;11.95;62.53
75172;BME280;63750;52.418;20.742;2024-03-02T10:52:56;100435.64;;;12.06;62.54
75172;BME280;63750;52.418;20.742;2024-03-02T10:55:25;100437.65;;;12.14;62.05
75172;BME280;63750;52.418;20.742;2024-03-02T10:57:54;100440.55;;;12.20;61.44
75172;BME280;63750;52.418;20.742;2024-03-02T11:00:24;100432.92;;;12.14;60.89
75172;BME280;63750;52.418;20.742;2024-03-02T11:02:55;100434.09;;;12.15;60.98
75172;BME280;63750;52.418;20.742;2024-03-02T11:05:28;100432.74;;;12.13;60.89
75172;BME280;63750;52.418;20.742;2024-03-02T11:08:00;100425.08;;;12.15;60.92
75172;BME280;63750;52.418;20.742;2024-03-02T11:10:30;100425.13;;;12.21;60.76
75172;BME280;63750;52.418;20.742;2024-03-02T11:13:05;100421.55;;;12.25;60.93
75172;BME280;63750;52.418;20.742;2024-03-02T11:15:35;100418.40;;;12.34;60.71
75172;BME280;63750;52.418;20.742;2024-03-02T11:18:04;100415.35;;;12.38;60.70
75172;BME280;63750;52.418;20.742;2024-03-02T11:20:34;100418.55;;;12.40;60.13
75172;BME280;63750;52.418;20.742;2024-03-02T11:23:07;100413.83;;;12.30;60.37
75172;BME280;63750;52.418;20.742;2024-03-02T11:25:37;100412.39;;;12.36;60.29
75172;BME280;63750;52.418;20.742;2024-03-02T11:28:06;100413.40;;;12.36;60.03
75172;BME280;63750;52.418;20.742;2024-03-02T11:30:51;100416.52;;;12.33;59.83
75172;BME280;63750;52.418;20.742;2024-03-02T11:33:26;100416.45;;;12.32;60.11
75172;BME280;63750;52.418;20.742;2024-03-02T11:35:54;100411.45;;;12.38;59.99
75172;BME280;63750;52.418;20.742;2024-03-02T11:38:23;100413.33;;;12.43;59.88
75172;BME280;63750;52.418;20.742;2024-03-02T11:40:55;100410.48;;;12.46;59.71
75172;BME280;63750;52.418;20.742;2024-03-02T11:43:23;100409.10;;;12.37;59.54
75172;BME280;63750;52.418;20.742;2024-03-02T11:45:59;100403.10;;;12.38;59.89
75172;BME280;63750;52.418;20.742;2024-03-02T11:48:28;100399.77;;;12.44;60.04
75172;BME280;63750;52.418;20.742;2024-03-02T11:50:59;100397.30;;;12.45;60.29
75172;BME280;63750;52.418;20.742;2024-03-02T11:53:29;100397.83;;;12.58;60.46
75172;BME280;63750;52.418;20.742;2024-03-02T11:55:59;100400.88;;;12.70;60.18
75172;BME280;63750;52.418;20.742;2024-03-02T11:58:28;100405.05;;;12.71;59.90
75172;BME280;63750;52.418;20.742;2024-03-02T12:00:56;100406.63;;;12.75;60.02
75172;BME280;63750;52.418;20.742;2024-03-02T12:03:25;100407.73;;;12.75;59.49
75172;BME280;63750;52.418;20.742;2024-03-02T12:05:54;100403.73;;;12.76;59.40
75172;BME280;63750;52.418;20.742;2024-03-02T12:08:22;100397.31;;;12.81;59.58
75172;BME280;63750;52.418;20.742;2024-03-02T12:11:01;100397.02;;;12.89;59.68
75172;BME280;63750;52.418;20.742;2024-03-02T12:13:29;100399.43;;;12.95;59.44
75172;BME280;63750;52.418;20.742;2024-03-02T12:15:57;100397.27;;;12.96;59.24
75172;BME280;63750;52.418;20.742;2024-03-02T12:18:26;100396.25;;;12.97;58.98
75172;BME280;63750;52.418;20.742;2024-03-02T12:20:54;100396.59;;;12.97;58.76
75172;BME280;63750;52.418;20.742;2024-03-02T12:23:22;100396.40;;;12.80;58.87
75172;BME280;63750;52.418;20.742;2024-03-02T12:25:51;100393.14;;;12.75;59.10
75172;BME280;63750;52.418;20.742;2024-03-02T12:28:20;100394.45;;;12.78;59.20
75172;BME280;63750;52.418;20.742;2024-03-02T12:30:49;100392.81;;;12.73;59.20
75172;BME280;63750;52.418;20.742;2024-03-02T12:33:18;100388.85;;;12.73;59.13
75172;BME280;63750;52.418;20.742;2024-03-02T12:35:48;100385.35;;;12.65;59.29
75172;BME280;63750;52.418;20.742;2024-03-02T12:38:16;100391.23;;;12.65;59.49
75172;BME280;63750;52.418;20.742;2024-03-02T12:40:45;100390.97;;;12.69;59.73
75172;BME280;63750;52.418;20.742;2024-03-02T12:43:15;100391.29;;;12.74;59.64
75172;BME280;63750;52.418;20.742;2024-03-02T12:45:43;100396.39;;;12.79;59.59
75172;BME280;63750;52.418;20.742;2024-03-02T12:48:11;100395.98;;;12.84;59.29
75172;BME280;63750;52.418;20.742;2024-03-02T12:50:41;100393.14;;;12.84;58.98
75172;BME280;63750;52.418;20.742;2024-03-02T12:53:15;100390.46;;;12.87;59.12